sensor_id;sensor_type;location;lat;lon;timestamp;temperature;humidity
13970;DHT22;7057;49.984;8.404;2023-07-30T00:00:59;19.80;99.90
13970;DHT22;7057;49.984;8.404;2023-07-30T00:03:27;19.80;99.90
13970;DHT22;7057;49.984;8.404;2023-07-30T00:05:54;19.70;99.90
13970;DHT22;7057;49.984;8.404;2023-07-30T00:08:22;19.70;99.90
13970;DHT22;7057;49.984;8.404;2023-07-30T00:10:49;19.80;99.90
13970;DHT22;7057;49.984;8.404;2023-07-30T00:13:16;19.70;99.90
13970;DHT22;7057;49.984;8.404;2023-07-30T00:15:47;19.70;99.90
13970;DHT22;7057;49.984;8.404;2023-07-30T00:18:15;19.70;99.90
13970;DHT22;7057;49.984;8.404;2023-07-30T00:20:42;19.70;99.90
13970;DHT22;7057;49.984;8.404;2023-07-30T00:23:09;19.70;99.90
13970;DHT22;7057;49.984;8.404;2023-07-30T00:25:36;19.80;99.90
13970;DHT22;7057;49.984;8.404;2023-07-30T00:28:03;19.90;99.90
13970;DHT22;7057;49.984;8.404;2023-07-30T00:30:31;19.90;99.90
13970;DHT22;7057;49.984;8.404;2023-07-30T00:32:59;20.00;99.90
13970;DHT22;7057;49.984;8.404;2023-07-30T00:35:26;20.00;99.90
13970;DHT22;7057;49.984;8.404;2023-07-30T00:37:54;19.90;99.90
13970;DHT22;7057;49.984;8.404;2023-07-30T00:40:21;20.00;99.90
13970;DHT22;7057;49.984;8.404;2023-07-30T00:42:48;20.10;99.90
13970;DHT22;7057;49.984;8.404;2023-07-30T00:45:15;20.10;99.90
13970;DHT22;7057;49.984;8.404;2023-07-30T00:47:43;20.10;99.90
13970;DHT22;7057;49.984;8.404;2023-07-30T00:50:13;20.20;99.90
13970;DHT22;7057;49.984;8.404;2023-07-30T00:52:42;20.20;99.90
13970;DHT22;7057;49.984;8.404;2023-07-30T00:55:10;20.20;99.90
13970;DHT22;7057;49.984;8.404;2023-07-30T00:57:38;20.10;99.90
13970;DHT22;7057;49.984;8.404;2023-07-30T01:00:07;20.10;99.90
13970;DHT22;7057;49.984;8.404;2023-07-30T01:02:35;20.10;99.90
13970;DHT22;7057;49.984;8.404;2023-07-30T01:05:02;20.10;99.90
13970;DHT22;7057;49.984;8.404;2023-07-30T01:07:32;20.10;99.90
13970;DHT22;7057;49.984;8.404;2023-07-30T01:09:59;20.20;99.90
13970;DHT22;7057;49.984;8.404;2023-07-30T01:12:28;20.10;99.90
13970;DHT22;7057;49.984;8.404;2023-07-30T01:14:56;20.10;99.90
13970;DHT22;7057;49.984;8.404;2023-07-30T01:17:24;20.10;99.90
13970;DHT22;7057;49.984;8.404;2023-07-30T01:19:52;20.00;99.90
13970;DHT22;7057;49.984;8.404;2023-07-30T01:22:22;20.00;99.90
13970;DHT22;7057;49.984;8.404;2023-07-30T01:24:49;20.00;99.90
13970;DHT22;7057;49.984;8.404;2023-07-30T01:27:21;20.00;99.90
13970;DHT22;7057;49.984;8.404;2023-07-30T01:29:52;20.00;99.90
13970;DHT22;7057;49.984;8.404;2023-07-30T01:32:25;20.00;99.90
13970;DHT22;7057;49.984;8.404;2023-07-30T01:34:54;20.00;99.90
13970;DHT22;7057;49.984;8.404;2023-07-30T01:37:23;20.00;99.90
13970;DHT22;7057;49.984;8.404;2023-07-30T01:39:51;20.10;99.90
13970;DHT22;7057;49.984;8.404;2023-07-30T01:42:19;20.10;99.90
13970;DHT22;7057;49.984;8.404;2023-07-30T01:44:46;20.00;99.90
13970;DHT22;7057;49.984;8.404;2023-07-30T01:47:13;20.00;99.90
13970;DHT22;7057;49.984;8.404;2023-07-30T01:49:40;20.00;99.90
13970;DHT22;7057;49.984;8.404;2023-07-30T01:52:07;20.00;99.90
13970;DHT22;7057;49.984;8.404;2023-07-30T01:54:36;20.00;99.90
13970;DHT22;7057;49.984;8.404;2023-07-30T01:57:04;20.00;99.90
13970;DHT22;7057;49.984;8.404;2023-07-30T01:59:31;20.00;99.90
13970;DHT22;7057;49.984;8.404;2023-07-30T02:01:58;19.90;99.90
13970;DHT22;7057;49.984;8.404;2023-07-30T02:04:25;19.90;99.90
13970;DHT22;7057;49.984;8.404;2023-07-30T02:06:52;19.80;99.90
13970;DHT22;7057;49.984;8.404;2023-07-30T02:09:20;19.80;99.90
13970;DHT22;7057;49.984;8.404;2023-07-30T02:11:48;19.80;99.90
13970;DHT22;7057;49.984;8.404;2023-07-30T02:14:17;19.90;99.90
13970;DHT22;7057;49.984;8.404;2023-07-30T02:16:45;19.90;99.90
13970;DHT22;7057;49.984;8.404;2023-07-30T02:19:12;19.90;99.90
13970;DHT22;7057;49.984;8.404;2023-07-30T02:21:39;19.90;99.90
13970;DHT22;7057;49.984;8.404;2023-07-30T02:24:08;19.90;99.90
13970;DHT22;7057;49.984;8.404;2023-07-30T02:26:37;19.90;99.90
13970;DHT22;7057;49.984;8.404;2023-07-30T02:29:06;20.00;99.90
13970;DHT22;7057;49.984;8.404;2023-07-30T02:31:33;20.00;99.90
13970;DHT22;7057;49.984;8.404;2023-07-30T02:34:00;20.00;99.90
13970;DHT22;7057;49.984;8.404;2023-07-30T02:36:27;20.00;99.90
13970;DHT22;7057;49.984;8.404;2023-07-30T02:38:55;20.00;99.90
13970;DHT22;7057;49.984;8.404;2023-07-30T02:41:22;19.90;99.90
13970;DHT22;7057;49.984;8.404;2023-07-30T02:43:49;19.90;99.90
13970;DHT22;7057;49.984;8.404;2023-07-30T02:46:17;19.80;99.90
13970;DHT22;7057;49.984;8.404;2023-07-30T02:48:44;19.80;99.90
13970;DHT22;7057;49.984;8.404;2023-07-30T02:51:12;19.80;99.90
13970;DHT22;7057;49.984;8.404;2023-07-30T02:53:39;19.70;99.90
13970;DHT22;7057;49.984;8.404;2023-07-30T02:56:06;19.70;99.90
13970;DHT22;7057;49.984;8.404;2023-07-30T02:58:33;19.70;99.90
13970;DHT22;7057;49.984;8.404;2023-07-30T03:01:05;19.60;99.90
13970;DHT22;7057;49.984;8.404;2023-07-30T03:03:34;19.60;99.90
13970;DHT22;7057;49.984;8.404;2023-07-30T03:06:01;19.50;99.90
13970;DHT22;7057;49.984;8.404;2023-07-30T03:08:28;19.40;99.90
13970;DHT22;7057;49.984;8.404;2023-07-30T03:10:58;19.40;99.90
13970;DHT22;7057;49.984;8.404;2023-07-30T03:13:25;19.30;99.90
13970;DHT22;7057;49.984;8.404;2023-07-30T03:15:52;19.30;99.90
13970;DHT22;7057;49.984;8.404;2023-07-30T03:18:19;19.20;99.90
13970;DHT22;7057;49.984;8.404;2023-07-30T03:20:48;19.20;99.90
13970;DHT22;7057;49.984;8.404;2023-07-30T03:23:15;19.20;99.90
13970;DHT22;7057;49.984;8.404;2023-07-30T03:25:42;19.20;99.90
13970;DHT22;7057;49.984;8.404;2023-07-30T03:28:09;19.10;99.90
13970;DHT22;7057;49.984;8.404;2023-07-30T03:30:36;19.10;99.90
13970;DHT22;7057;49.984;8.404;2023-07-30T03:33:03;19.00;99.90
13970;DHT22;7057;49.984;8.404;2023-07-30T03:35:30;18.90;99.90
13970;DHT22;7057;49.984;8.404;2023-07-30T03:37:59;18.90;99.90
13970;DHT22;7057;49.984;8.404;2023-07-30T03:40:26;18.80;99.90
13970;DHT22;7057;49.984;8.404;2023-07-30T03:42:53;18.80;99.90
13970;DHT22;7057;49.984;8.404;2023-07-30T03:45:21;18.80;99.90
13970;DHT22;7057;49.984;8.404;2023-07-30T03:47:48;18.70;99.90
13970;DHT22;7057;49.984;8.404;2023-07-30T03:50:15;18.80;99.90
13970;DHT22;7057;49.984;8.404;2023-07-30T03:52:42;18.70;99.90
13970;DHT22;7057;49.984;8.404;2023-07-30T03:55:11;18.70;99.90
13970;DHT22;7057;49.984;8.404;2023-07-30T03:57:38;18.70;99.90
13970;DHT22;7057;49.984;8.404;2023-07-30T04:00:06;18.70;99.90
13970;DHT22;7057;49.984;8.404;2023-07-30T04:02:33;18.70;99.90
13970;DHT22;7057;49.984;8.404;2023-07-30T04:05:00;18.70;99.90
13970;DHT22;7057;49.984;8.404;2023-07-30T04:07:27;18.70;99.90
13970;DHT22;7057;49.984;8.404;2023-07-30T04:09:55;18.60;99.90
13970;DHT22;7057;49.984;8.404;2023-07-30T04:12:23;18.60;99.90
13970;DHT22;7057;49.984;8.404;2023-07-30T04:14:51;18.60;99.90
13970;DHT22;7057;49.984;8.404;2023-07-30T04:17:18;18.60;99.90
13970;DHT22;7057;49.984;8.404;2023-07-30T04:19:45;18.60;99.90
13970;DHT22;7057;49.984;8.404;2023-07-30T04:22:12;18.60;99.90
13970;DHT22;7057;49.984;8.404;2023-07-30T04:24:39;18.60;99.90
13970;DHT22;7057;49.984;8.404;2023-07-30T04:27:07;18.70;99.90
13970;DHT22;7057;49.984;8.404;2023-07-30T04:29:35;18.70;99.90
13970;DHT22;7057;49.984;8.404;2023-07-30T04:32:03;18.70;99.90
13970;DHT22;7057;49.984;8.404;2023-07-30T04:34:30;18.80;99.90
13970;DHT22;7057;49.984;8.404;2023-07-30T04:36:57;18.80;99.90
13970;DHT22;7057;49.984;8.404;2023-07-30T04:39:24;18.70;99.90
13970;DHT22;7057;49.984;8.404;2023-07-30T04:41:51;18.70;99.90
13970;DHT22;7057;49.984;8.404;2023-07-30T04:44:18;18.70;99.90
13970;DHT22;7057;49.984;8.404;2023-07-30T04:46:47;18.70;99.90
13970;DHT22;7057;49.984;8.404;2023-07-30T04:49:14;18.80;99.90
13970;DHT22;7057;49.984;8.404;2023-07-30T04:51:41;18.80;99.90
13970;DHT22;7057;49.984;8.404;2023-07-30T04:54:09;18.90;99.90
13970;DHT22;7057;49.984;8.404;2023-07-30T04:56:36;18.90;99.90
13970;DHT22;7057;49.984;8.404;2023-07-30T04:59:03;19.00;99.90
13970;DHT22;7057;49.984;8.404;2023-07-30T05:01:30;19.00;99.90
13970;DHT22;7057;49.984;8.404;2023-07-30T05:03:59;19.00;99.90
13970;DHT22;7057;49.984;8.404;2023-07-30T05:06:26;19.00;99.90
13970;DHT22;7057;49.984;8.404;2023-07-30T05:08:53;19.00;99.90
13970;DHT22;7057;49.984;8.404;2023-07-30T05:11:21;19.00;99.90
13970;DHT22;7057;49.984;8.404;2023-07-30T05:13:49;19.10;99.90
13970;DHT22;7057;49.984;8.404;2023-07-30T05:16:16;19.20;99.90
13970;DHT22;7057;49.984;8.404;2023-07-30T05:18:43;19.30;99.90
13970;DHT22;7057;49.984;8.404;2023-07-30T05:21:12;19.40;99.90
13970;DHT22;7057;49.984;8.404;2023-07-30T05:23:39;19.60;99.90
13970;DHT22;7057;49.984;8.404;2023-07-30T05:26:06;19.80;99.90
13970;DHT22;7057;49.984;8.404;2023-07-30T05:28:33;19.90;99.90
13970;DHT22;7057;49.984;8.404;2023-07-30T05:31:00;20.00;99.90
13970;DHT22;7057;49.984;8.404;2023-07-30T05:33:27;20.10;99.90
13970;DHT22;7057;49.984;8.404;2023-07-30T05:35:55;20.10;99.90
13970;DHT22;7057;49.984;8.404;2023-07-30T05:38:23;20.10;99.90
13970;DHT22;7057;49.984;8.404;2023-07-30T05:40:50;20.20;99.90
13970;DHT22;7057;49.984;8.404;2023-07-30T05:43:17;20.20;99.90
13970;DHT22;7057;49.984;8.404;2023-07-30T05:45:45;20.30;99.90
13970;DHT22;7057;49.984;8.404;2023-07-30T05:48:12;20.40;99.90
13970;DHT22;7057;49.984;8.404;2023-07-30T05:50:39;20.40;99.90
13970;DHT22;7057;49.984;8.404;2023-07-30T05:53:06;20.50;99.90
13970;DHT22;7057;49.984;8.404;2023-07-30T05:55:34;20.60;99.90
13970;DHT22;7057;49.984;8.404;2023-07-30T05:58:02;20.70;99.90
13970;DHT22;7057;49.984;8.404;2023-07-30T06:00:29;20.70;99.90
13970;DHT22;7057;49.984;8.404;2023-07-30T06:02:56;20.80;99.90
13970;DHT22;7057;49.984;8.404;2023-07-30T06:05:23;21.00;99.90
13970;DHT22;7057;49.984;8.404;2023-07-30T06:07:51;21.30;99.90
13970;DHT22;7057;49.984;8.404;2023-07-30T06:10:18;21.50;99.90
13970;DHT22;7057;49.984;8.404;2023-07-30T06:12:46;21.70;99.90
13970;DHT22;7057;49.984;8.404;2023-07-30T06:15:13;21.80;99.90
13970;DHT22;7057;49.984;8.404;2023-07-30T06:17:41;21.80;99.90
13970;DHT22;7057;49.984;8.404;2023-07-30T06:20:09;21.80;99.90
13970;DHT22;7057;49.984;8.404;2023-07-30T06:22:36;21.90;99.90
13970;DHT22;7057;49.984;8.404;2023-07-30T06:25:04;21.90;99.90
13970;DHT22;7057;49.984;8.404;2023-07-30T06:27:31;21.80;99.90
13970;DHT22;7057;49.984;8.404;2023-07-30T06:30:00;21.80;99.90
13970;DHT22;7057;49.984;8.404;2023-07-30T06:32:27;21.70;99.90
13970;DHT22;7057;49.984;8.404;2023-07-30T06:34:54;21.80;99.90
13970;DHT22;7057;49.984;8.404;2023-07-30T06:37:21;21.80;99.90
13970;DHT22;7057;49.984;8.404;2023-07-30T06:39:48;21.90;99.90
13970;DHT22;7057;49.984;8.404;2023-07-30T06:42:16;21.90;99.90
13970;DHT22;7057;49.984;8.404;2023-07-30T06:44:43;22.00;99.90
13970;DHT22;7057;49.984;8.404;2023-07-30T06:47:11;22.00;99.90
13970;DHT22;7057;49.984;8.404;2023-07-30T06:49:38;21.90;99.90
13970;DHT22;7057;49.984;8.404;2023-07-30T06:52:06;22.00;99.90
13970;DHT22;7057;49.984;8.404;2023-07-30T06:54:33;22.10;99.90
13970;DHT22;7057;49.984;8.404;2023-07-30T06:57:00;22.20;99.90
13970;DHT22;7057;49.984;8.404;2023-07-30T06:59:28;22.40;99.90
13970;DHT22;7057;49.984;8.404;2023-07-30T07:01:55;22.60;99.90
13970;DHT22;7057;49.984;8.404;2023-07-30T07:04:24;22.70;99.90
13970;DHT22;7057;49.984;8.404;2023-07-30T07:06:51;22.70;99.90
13970;DHT22;7057;49.984;8.404;2023-07-30T07:09:18;22.70;99.90
13970;DHT22;7057;49.984;8.404;2023-07-30T07:11:45;22.50;99.90
13970;DHT22;7057;49.984;8.404;2023-07-30T07:14:12;22.40;99.90
13970;DHT22;7057;49.984;8.404;2023-07-30T07:16:39;22.20;99.90
13970;DHT22;7057;49.984;8.404;2023-07-30T07:19:06;22.10;99.90
13970;DHT22;7057;49.984;8.404;2023-07-30T07:21:35;21.90;99.90
13970;DHT22;7057;49.984;8.404;2023-07-30T07:24:02;21.70;99.90
13970;DHT22;7057;49.984;8.404;2023-07-30T07:26:29;21.50;99.90
13970;DHT22;7057;49.984;8.404;2023-07-30T07:28:57;21.40;99.90
13970;DHT22;7057;49.984;8.404;2023-07-30T07:31:24;21.30;99.90
13970;DHT22;7057;49.984;8.404;2023-07-30T07:33:51;21.30;99.90
13970;DHT22;7057;49.984;8.404;2023-07-30T07:36:18;21.40;99.90
13970;DHT22;7057;49.984;8.404;2023-07-30T07:38:47;21.50;99.90
13970;DHT22;7057;49.984;8.404;2023-07-30T07:41:14;21.60;99.90
13970;DHT22;7057;49.984;8.404;2023-07-30T07:43:42;21.80;99.90
13970;DHT22;7057;49.984;8.404;2023-07-30T07:46:09;21.90;99.90
13970;DHT22;7057;49.984;8.404;2023-07-30T07:48:39;22.10;99.90
13970;DHT22;7057;49.984;8.404;2023-07-30T07:51:08;22.40;99.90
13970;DHT22;7057;49.984;8.404;2023-07-30T07:53:36;22.70;99.90
13970;DHT22;7057;49.984;8.404;2023-07-30T07:56:05;22.90;99.90
13970;DHT22;7057;49.984;8.404;2023-07-30T07:58:32;23.00;99.90
13970;DHT22;7057;49.984;8.404;2023-07-30T08:01:00;23.00;99.90
13970;DHT22;7057;49.984;8.404;2023-07-30T08:03:27;23.00;99.90
13970;DHT22;7057;49.984;8.404;2023-07-30T08:05:54;22.80;99.90
13970;DHT22;7057;49.984;8.404;2023-07-30T08:08:24;22.80;99.90
13970;DHT22;7057;49.984;8.404;2023-07-30T08:10:51;22.70;99.90
13970;DHT22;7057;49.984;8.404;2023-07-30T08:13:19;22.70;99.90
13970;DHT22;7057;49.984;8.404;2023-07-30T08:15:47;22.80;99.90
13970;DHT22;7057;49.984;8.404;2023-07-30T08:18:14;22.70;99.90
13970;DHT22;7057;49.984;8.404;2023-07-30T08:20:41;22.70;99.90
13970;DHT22;7057;49.984;8.404;2023-07-30T08:23:08;22.80;99.90
13970;DHT22;7057;49.984;8.404;2023-07-30T08:25:35;22.80;99.90
13970;DHT22;7057;49.984;8.404;2023-07-30T08:28:03;23.00;99.90
13970;DHT22;7057;49.984;8.404;2023-07-30T08:30:31;23.00;99.90
13970;DHT22;7057;49.984;8.404;2023-07-30T08:32:59;23.10;99.90
13970;DHT22;7057;49.984;8.404;2023-07-30T08:35:26;23.30;99.90
13970;DHT22;7057;49.984;8.404;2023-07-30T08:37:54;23.50;99.90
13970;DHT22;7057;49.984;8.404;2023-07-30T08:40:22;23.60;99.90
13970;DHT22;7057;49.984;8.404;2023-07-30T08:42:50;23.70;99.90
13970;DHT22;7057;49.984;8.404;2023-07-30T08:45:18;23.80;99.90
13970;DHT22;7057;49.984;8.404;2023-07-30T08:47:47;24.00;99.90
13970;DHT22;7057;49.984;8.404;2023-07-30T08:50:14;24.00;99.90
13970;DHT22;7057;49.984;8.404;2023-07-30T08:52:41;24.10;99.90
13970;DHT22;7057;49.984;8.404;2023-07-30T08:55:10;24.20;99.90
13970;DHT22;7057;49.984;8.404;2023-07-30T08:57:38;24.30;99.90
13970;DHT22;7057;49.984;8.404;2023-07-30T09:00:09;24.40;99.90
13970;DHT22;7057;49.984;8.404;2023-07-30T09:02:38;24.30;99.90
13970;DHT22;7057;49.984;8.404;2023-07-30T09:05:08;24.00;99.90
13970;DHT22;7057;49.984;8.404;2023-07-30T09:07:35;23.90;99.90
13970;DHT22;7057;49.984;8.404;2023-07-30T09:10:03;23.80;99.90
13970;DHT22;7057;49.984;8.404;2023-07-30T09:12:30;23.70;99.90
13970;DHT22;7057;49.984;8.404;2023-07-30T09:14:58;23.50;99.90
13970;DHT22;7057;49.984;8.404;2023-07-30T09:17:26;23.10;99.90
13970;DHT22;7057;49.984;8.404;2023-07-30T09:19:53;22.50;99.90
13970;DHT22;7057;49.984;8.404;2023-07-30T09:22:24;22.10;99.90
13970;DHT22;7057;49.984;8.404;2023-07-30T09:24:51;21.80;99.90
13970;DHT22;7057;49.984;8.404;2023-07-30T09:27:21;21.40;99.90
13970;DHT22;7057;49.984;8.404;2023-07-30T09:29:51;21.20;99.90
13970;DHT22;7057;49.984;8.404;2023-07-30T09:32:18;21.00;99.90
13970;DHT22;7057;49.984;8.404;2023-07-30T09:34:46;21.00;99.90
13970;DHT22;7057;49.984;8.404;2023-07-30T09:37:14;21.00;99.90
13970;DHT22;7057;49.984;8.404;2023-07-30T09:39:43;20.90;99.90
13970;DHT22;7057;49.984;8.404;2023-07-30T09:42:10;20.70;99.90
13970;DHT22;7057;49.984;8.404;2023-07-30T09:44:38;20.70;99.90
13970;DHT22;7057;49.984;8.404;2023-07-30T09:47:08;20.80;99.90
13970;DHT22;7057;49.984;8.404;2023-07-30T09:49:36;20.80;99.90
13970;DHT22;7057;49.984;8.404;2023-07-30T09:52:04;20.80;99.90
13970;DHT22;7057;49.984;8.404;2023-07-30T09:54:33;21.00;99.90
13970;DHT22;7057;49.984;8.404;2023-07-30T09:57:01;21.20;99.90
13970;DHT22;7057;49.984;8.404;2023-07-30T09:59:29;21.30;99.90
13970;DHT22;7057;49.984;8.404;2023-07-30T10:01:57;21.40;99.90
13970;DHT22;7057;49.984;8.404;2023-07-30T10:04:26;21.50;99.90
13970;DHT22;7057;49.984;8.404;2023-07-30T10:06:56;21.50;99.90
13970;DHT22;7057;49.984;8.404;2023-07-30T10:09:29;21.50;99.90
13970;DHT22;7057;49.984;8.404;2023-07-30T10:11:57;21.40;99.90
13970;DHT22;7057;49.984;8.404;2023-07-30T10:14:27;21.40;99.90
13970;DHT22;7057;49.984;8.404;2023-07-30T10:16:59;21.50;99.90
13970;DHT22;7057;49.984;8.404;2023-07-30T10:19:27;21.70;99.90
13970;DHT22;7057;49.984;8.404;2023-07-30T10:21:58;21.80;99.90
13970;DHT22;7057;49.984;8.404;2023-07-30T10:24:26;21.90;99.90
13970;DHT22;7057;49.984;8.404;2023-07-30T10:26:53;22.00;99.90
13970;DHT22;7057;49.984;8.404;2023-07-30T10:29:24;22.00;99.90
13970;DHT22;7057;49.984;8.404;2023-07-30T10:31:54;22.00;99.90
13970;DHT22;7057;49.984;8.404;2023-07-30T10:34:23;22.00;99.90
13970;DHT22;7057;49.984;8.404;2023-07-30T10:36:55;22.10;99.90
13970;DHT22;7057;49.984;8.404;2023-07-30T10:39:27;21.90;99.90
13970;DHT22;7057;49.984;8.404;2023-07-30T10:41:56;21.90;99.90
13970;DHT22;7057;49.984;8.404;2023-07-30T10:44:24;21.90;99.90
13970;DHT22;7057;49.984;8.404;2023-07-30T10:46:54;21.90;99.90
13970;DHT22;7057;49.984;8.404;2023-07-30T10:49:22;22.00;99.90
13970;DHT22;7057;49.984;8.404;2023-07-30T10:51:51;22.10;99.90
13970;DHT22;7057;49.984;8.404;2023-07-30T10:54:18;22.20;99.90
13970;DHT22;7057;49.984;8.404;2023-07-30T10:56:46;22.30;99.90
13970;DHT22;7057;49.984;8.404;2023-07-30T10:59:14;22.20;99.90
13970;DHT22;7057;49.984;8.404;2023-07-30T11:01:43;22.10;99.90
13970;DHT22;7057;49.984;8.404;2023-07-30T11:04:14;22.10;99.90
13970;DHT22;7057;49.984;8.404;2023-07-30T11:06:45;22.20;99.90
13970;DHT22;7057;49.984;8.404;2023-07-30T11:09:18;22.20;99.90
13970;DHT22;7057;49.984;8.404;2023-07-30T11:11:46;22.20;99.90
13970;DHT22;7057;49.984;8.404;2023-07-30T11:14:15;22.30;99.90
13970;DHT22;7057;49.984;8.404;2023-07-30T11:16:48;22.50;99.90
13970;DHT22;7057;49.984;8.404;2023-07-30T11:19:17;22.60;99.90
13970;DHT22;7057;49.984;8.404;2023-07-30T11:21:45;22.70;99.90
13970;DHT22;7057;49.984;8.404;2023-07-30T11:24:12;22.70;99.90
13970;DHT22;7057;49.984;8.404;2023-07-30T11:26:40;22.60;99.90
13970;DHT22;7057;49.984;8.404;2023-07-30T11:29:14;22.50;99.90
13970;DHT22;7057;49.984;8.404;2023-07-30T11:31:43;22.40;99.90
13970;DHT22;7057;49.984;8.404;2023-07-30T11:34:11;22.20;99.90
13970;DHT22;7057;49.984;8.404;2023-07-30T11:36:40;22.10;99.90
13970;DHT22;7057;49.984;8.404;2023-07-30T11:39:08;22.10;99.90
13970;DHT22;7057;49.984;8.404;2023-07-30T11:41:36;22.10;99.90
13970;DHT22;7057;49.984;8.404;2023-07-30T11:44:04;22.00;99.90
13970;DHT22;7057;49.984;8.404;2023-07-30T11:46:31;22.00;99.90
13970;DHT22;7057;49.984;8.404;2023-07-30T11:49:11;21.90;99.90
13970;DHT22;7057;49.984;8.404;2023-07-30T11:51:40;22.00;99.90
13970;DHT22;7057;49.984;8.404;2023-07-30T11:54:07;22.00;99.90
13970;DHT22;7057;49.984;8.404;2023-07-30T11:56:44;22.30;99.90
13970;DHT22;7057;49.984;8.404;2023-07-30T11:59:12;22.50;99.90
13970;DHT22;7057;49.984;8.404;2023-07-30T12:01:42;22.70;99.90
13970;DHT22;7057;49.984;8.404;2023-07-30T12:04:09;22.80;99.90
13970;DHT22;7057;49.984;8.404;2023-07-30T12:06:42;22.80;99.90
13970;DHT22;7057;49.984;8.404;2023-07-30T12:09:11;22.80;99.90
13970;DHT22;7057;49.984;8.404;2023-07-30T12:11:44;22.90;99.90
13970;DHT22;7057;49.984;8.404;2023-07-30T12:14:12;23.10;99.90
13970;DHT22;7057;49.984;8.404;2023-07-30T12:16:39;23.10;99.90
13970;DHT22;7057;49.984;8.404;2023-07-30T12:19:07;23.10;99.90
13970;DHT22;7057;49.984;8.404;2023-07-30T12:21:34;22.80;99.90
13970;DHT22;7057;49.984;8.404;2023-07-30T12:24:03;22.70;99.90
13970;DHT22;7057;49.984;8.404;2023-07-30T12:26:30;22.60;99.90
13970;DHT22;7057;49.984;8.404;2023-07-30T12:28:58;22.80;99.90
13970;DHT22;7057;49.984;8.404;2023-07-30T12:31:25;23.00;99.90
13970;DHT22;7057;49.984;8.404;2023-07-30T12:33:52;23.00;99.90
13970;DHT22;7057;49.984;8.404;2023-07-30T12:36:19;23.10;99.90
13970;DHT22;7057;49.984;8.404;2023-07-30T12:38:46;23.00;99.90
13970;DHT22;7057;49.984;8.404;2023-07-30T12:41:15;22.90;99.90
13970;DHT22;7057;49.984;8.404;2023-07-30T12:43:43;23.10;99.90
13970;DHT22;7057;49.984;8.404;2023-07-30T12:46:10;23.20;99.90
13970;DHT22;7057;49.984;8.404;2023-07-30T12:48:37;23.40;99.90
13970;DHT22;7057;49.984;8.404;2023-07-30T12:51:04;23.50;99.90
13970;DHT22;7057;49.984;8.404;2023-07-30T12:53:31;23.40;99.90
13970;DHT22;7057;49.984;8.404;2023-07-30T12:55:58;23.20;99.90
13970;DHT22;7057;49.984;8.404;2023-07-30T12:58:27;23.00;99.90
13970;DHT22;7057;49.984;8.404;2023-07-30T13:00:54;23.10;99.90
13970;DHT22;7057;49.984;8.404;2023-07-30T13:03:21;23.10;99.90
13970;DHT22;7057;49.984;8.404;2023-07-30T13:05:49;23.40;99.90
13970;DHT22;7057;49.984;8.404;2023-07-30T13:08:16;23.50;99.90
13970;DHT22;7057;49.984;8.404;2023-07-30T13:10:43;23.40;99.90
13970;DHT22;7057;49.984;8.404;2023-07-30T13:13:10;23.40;99.90
13970;DHT22;7057;49.984;8.404;2023-07-30T13:15:38;23.40;99.90
13970;DHT22;7057;49.984;8.404;2023-07-30T13:18:06;23.50;99.90
13970;DHT22;7057;49.984;8.404;2023-07-30T13:20:33;23.70;99.90
13970;DHT22;7057;49.984;8.404;2023-07-30T13:23:00;23.70;99.90
13970;DHT22;7057;49.984;8.404;2023-07-30T13:25:27;23.80;99.90
13970;DHT22;7057;49.984;8.404;2023-07-30T13:27:54;23.90;99.90
13970;DHT22;7057;49.984;8.404;2023-07-30T13:30:21;23.90;99.90
13970;DHT22;7057;49.984;8.404;2023-07-30T13:32:50;23.90;99.90
13970;DHT22;7057;49.984;8.404;2023-07-30T13:35:17;23.90;99.90
13970;DHT22;7057;49.984;8.404;2023-07-30T13:37:44;23.90;99.90
13970;DHT22;7057;49.984;8.404;2023-07-30T13:40:11;23.90;99.90
13970;DHT22;7057;49.984;8.404;2023-07-30T13:42:38;23.90;99.90
13970;DHT22;7057;49.984;8.404;2023-07-30T13:45:06;24.20;99.90
13970;DHT22;7057;49.984;8.404;2023-07-30T13:47:33;24.40;99.90
13970;DHT22;7057;49.984;8.404;2023-07-30T13:50:02;24.40;99.90
13970;DHT22;7057;49.984;8.404;2023-07-30T13:52:29;24.40;99.90
13970;DHT22;7057;49.984;8.404;2023-07-30T13:54:56;24.30;99.90
13970;DHT22;7057;49.984;8.404;2023-07-30T13:57:24;24.10;99.90
13970;DHT22;7057;49.984;8.404;2023-07-30T13:59:51;24.00;99.90
13970;DHT22;7057;49.984;8.404;2023-07-30T14:02:18;23.90;99.90
13970;DHT22;7057;49.984;8.404;2023-07-30T14:04:45;23.90;99.90
13970;DHT22;7057;49.984;8.404;2023-07-30T14:07:14;24.00;99.90
13970;DHT22;7057;49.984;8.404;2023-07-30T14:09:41;24.10;99.90
13970;DHT22;7057;49.984;8.404;2023-07-30T14:12:09;24.20;99.90
13970;DHT22;7057;49.984;8.404;2023-07-30T14:14:36;24.30;99.90
13970;DHT22;7057;49.984;8.404;2023-07-30T14:17:03;24.20;99.90
13970;DHT22;7057;49.984;8.404;2023-07-30T14:19:32;24.10;99.90
13970;DHT22;7057;49.984;8.404;2023-07-30T14:22:00;24.00;99.90
13970;DHT22;7057;49.984;8.404;2023-07-30T14:24:28;24.10;99.90
13970;DHT22;7057;49.984;8.404;2023-07-30T14:26:55;24.20;99.90
13970;DHT22;7057;49.984;8.404;2023-07-30T14:29:22;24.20;99.90
13970;DHT22;7057;49.984;8.404;2023-07-30T14:31:50;24.10;99.90
13970;DHT22;7057;49.984;8.404;2023-07-30T14:34:17;24.10;99.90
13970;DHT22;7057;49.984;8.404;2023-07-30T14:36:44;24.10;99.90
13970;DHT22;7057;49.984;8.404;2023-07-30T14:39:11;24.00;99.90
13970;DHT22;7057;49.984;8.404;2023-07-30T14:41:40;24.00;99.90
13970;DHT22;7057;49.984;8.404;2023-07-30T14:44:07;24.10;99.90
13970;DHT22;7057;49.984;8.404;2023-07-30T14:46:34;24.20;99.90
13970;DHT22;7057;49.984;8.404;2023-07-30T14:49:01;24.30;99.90
13970;DHT22;7057;49.984;8.404;2023-07-30T14:51:28;24.60;99.90
13970;DHT22;7057;49.984;8.404;2023-07-30T14:53:55;24.70;99.90
13970;DHT22;7057;49.984;8.404;2023-07-30T14:56:23;24.80;99.90
13970;DHT22;7057;49.984;8.404;2023-07-30T14:58:51;25.00;99.90
13970;DHT22;7057;49.984;8.404;2023-07-30T15:01:18;24.90;99.90
13970;DHT22;7057;49.984;8.404;2023-07-30T15:03:45;24.90;99.90
13970;DHT22;7057;49.984;8.404;2023-07-30T15:06:12;24.90;99.90
13970;DHT22;7057;49.984;8.404;2023-07-30T15:08:40;24.90;99.90
13970;DHT22;7057;49.984;8.404;2023-07-30T15:11:07;24.60;99.90
13970;DHT22;7057;49.984;8.404;2023-07-30T15:13:34;24.50;99.90
13970;DHT22;7057;49.984;8.404;2023-07-30T15:16:03;24.40;99.90
13970;DHT22;7057;49.984;8.404;2023-07-30T15:18:30;24.40;99.90
13970;DHT22;7057;49.984;8.404;2023-07-30T15:20:57;24.50;99.90
13970;DHT22;7057;49.984;8.404;2023-07-30T15:23:24;24.60;99.90
13970;DHT22;7057;49.984;8.404;2023-07-30T15:25:51;24.50;99.90
13970;DHT22;7057;49.984;8.404;2023-07-30T15:28:20;24.20;99.90
13970;DHT22;7057;49.984;8.404;2023-07-30T15:30:47;24.00;99.90
13970;DHT22;7057;49.984;8.404;2023-07-30T15:33:16;23.90;99.90
13970;DHT22;7057;49.984;8.404;2023-07-30T15:35:43;24.00;99.90
13970;DHT22;7057;49.984;8.404;2023-07-30T15:38:10;24.10;99.90
13970;DHT22;7057;49.984;8.404;2023-07-30T15:40:37;24.00;99.90
13970;DHT22;7057;49.984;8.404;2023-07-30T15:43:05;24.00;99.90
13970;DHT22;7057;49.984;8.404;2023-07-30T15:45:33;23.90;99.90
13970;DHT22;7057;49.984;8.404;2023-07-30T15:48:01;23.90;99.90